sensor_id;sensor_type;location;lat;lon;timestamp;P1;durP1;ratioP1;P2;durP2;ratioP2
29958;SDS011;16815;51.100;6.516;2023-03-01T00:01:31;20.03;;;12.53;;
29958;SDS011;16815;51.100;6.516;2023-03-01T00:03:58;21.30;;;13.10;;
29958;SDS011;16815;51.100;6.516;2023-03-01T00:06:24;15.47;;;11.40;;
29958;SDS011;16815;51.100;6.516;2023-03-01T00:08:50;15.83;;;10.90;;
29958;SDS011;16815;51.100;6.516;2023-03-01T00:11:21;14.83;;;10.10;;
29958;SDS011;16815;51.100;6.516;2023-03-01T00:13:47;17.27;;;9.47;;
29958;SDS011;16815;51.100;6.516;2023-03-01T00:16:19;11.20;;;8.97;;
29958;SDS011;16815;51.100;6.516;2023-03-01T00:18:45;12.67;;;8.50;;
29958;SDS011;16815;51.100;6.516;2023-03-01T00:21:11;12.30;;;9.23;;
29958;SDS011;16815;51.100;6.516;2023-03-01T00:23:38;11.87;;;9.00;;
29958;SDS011;16815;51.100;6.516;2023-03-01T00:26:11;11.33;;;8.47;;
29958;SDS011;16815;51.100;6.516;2023-03-01T00:28:37;11.23;;;9.37;;
29958;SDS011;16815;51.100;6.516;2023-03-01T00:31:07;13.67;;;9.10;;
29958;SDS011;16815;51.100;6.516;2023-03-01T00:33:33;13.30;;;9.03;;
29958;SDS011;16815;51.100;6.516;2023-03-01T00:35:59;11.53;;;8.43;;
29958;SDS011;16815;51.100;6.516;2023-03-01T00:38:25;10.57;;;8.50;;
29958;SDS011;16815;51.100;6.516;2023-03-01T00:40:51;12.27;;;8.63;;
29958;SDS011;16815;51.100;6.516;2023-03-01T00:43:17;10.80;;;9.07;;
29958;SDS011;16815;51.100;6.516;2023-03-01T00:45:43;14.07;;;8.73;;
29958;SDS011;16815;51.100;6.516;2023-03-01T00:48:09;14.33;;;8.57;;
29958;SDS011;16815;51.100;6.516;2023-03-01T00:50:35;10.83;;;8.50;;
29958;SDS011;16815;51.100;6.516;2023-03-01T00:53:01;9.00;;;8.10;;
29958;SDS011;16815;51.100;6.516;2023-03-01T00:55:27;11.73;;;8.13;;
29958;SDS011;16815;51.100;6.516;2023-03-01T00:57:53;11.53;;;8.43;;
29958;SDS011;16815;51.100;6.516;2023-03-01T01:00:20;10.30;;;8.57;;
29958;SDS011;16815;51.100;6.516;2023-03-01T01:02:46;9.03;;;8.13;;
29958;SDS011;16815;51.100;6.516;2023-03-01T01:05:12;9.37;;;7.33;;
29958;SDS011;16815;51.100;6.516;2023-03-01T01:07:38;9.53;;;8.33;;
29958;SDS011;16815;51.100;6.516;2023-03-01T01:10:04;9.57;;;8.47;;
29958;SDS011;16815;51.100;6.516;2023-03-01T01:12:30;10.37;;;8.23;;
29958;SDS011;16815;51.100;6.516;2023-03-01T01:14:57;10.00;;;8.30;;
29958;SDS011;16815;51.100;6.516;2023-03-01T01:17:23;11.27;;;8.13;;
29958;SDS011;16815;51.100;6.516;2023-03-01T01:19:49;9.43;;;7.80;;
29958;SDS011;16815;51.100;6.516;2023-03-01T01:22:14;10.40;;;7.60;;
29958;SDS011;16815;51.100;6.516;2023-03-01T01:24:40;9.37;;;8.30;;
29958;SDS011;16815;51.100;6.516;2023-03-01T01:27:06;10.03;;;8.87;;
29958;SDS011;16815;51.100;6.516;2023-03-01T01:29:33;9.33;;;8.33;;
29958;SDS011;16815;51.100;6.516;2023-03-01T01:31:59;12.63;;;10.00;;
29958;SDS011;16815;51.100;6.516;2023-03-01T01:34:24;11.23;;;9.07;;
29958;SDS011;16815;51.100;6.516;2023-03-01T01:36:52;11.47;;;8.10;;
29958;SDS011;16815;51.100;6.516;2023-03-01T01:39:19;12.00;;;9.70;;
29958;SDS011;16815;51.100;6.516;2023-03-01T01:41:45;11.93;;;9.17;;
29958;SDS011;16815;51.100;6.516;2023-03-01T01:46:50;11.03;;;8.77;;
29958;SDS011;16815;51.100;6.516;2023-03-01T01:51:57;10.63;;;8.50;;
29958;SDS011;16815;51.100;6.516;2023-03-01T01:54:28;10.37;;;8.57;;
29958;SDS011;16815;51.100;6.516;2023-03-01T01:56:57;11.03;;;8.80;;
29958;SDS011;16815;51.100;6.516;2023-03-01T01:59:24;13.57;;;9.07;;
29958;SDS011;16815;51.100;6.516;2023-03-01T02:01:51;11.27;;;8.77;;
29958;SDS011;16815;51.100;6.516;2023-03-01T02:04:17;11.37;;;8.73;;
29958;SDS011;16815;51.100;6.516;2023-03-01T02:06:46;10.43;;;9.27;;
29958;SDS011;16815;51.100;6.516;2023-03-01T02:09:15;11.23;;;9.17;;
29958;SDS011;16815;51.100;6.516;2023-03-01T02:11:42;10.43;;;9.13;;
29958;SDS011;16815;51.100;6.516;2023-03-01T02:14:09;10.60;;;8.30;;
29958;SDS011;16815;51.100;6.516;2023-03-01T02:16:35;12.60;;;9.57;;
29958;SDS011;16815;51.100;6.516;2023-03-01T02:19:01;10.50;;;8.83;;
29958;SDS011;16815;51.100;6.516;2023-03-01T02:23:55;14.70;;;9.50;;
29958;SDS011;16815;51.100;6.516;2023-03-01T02:28:56;12.00;;;9.90;;
29958;SDS011;16815;51.100;6.516;2023-03-01T02:31:22;10.17;;;9.07;;
29958;SDS011;16815;51.100;6.516;2023-03-01T02:34:07;10.30;;;9.07;;
29958;SDS011;16815;51.100;6.516;2023-03-01T02:36:53;10.53;;;9.17;;
29958;SDS011;16815;51.100;6.516;2023-03-01T02:39:27;11.87;;;9.73;;
29958;SDS011;16815;51.100;6.516;2023-03-01T02:41:54;16.50;;;10.37;;
29958;SDS011;16815;51.100;6.516;2023-03-01T02:44:22;11.73;;;8.87;;
29958;SDS011;16815;51.100;6.516;2023-03-01T02:46:49;11.70;;;9.37;;
29958;SDS011;16815;51.100;6.516;2023-03-01T02:49:20;11.47;;;10.27;;
29958;SDS011;16815;51.100;6.516;2023-03-01T02:51:56;11.07;;;9.37;;
29958;SDS011;16815;51.100;6.516;2023-03-01T02:56:59;10.23;;;9.20;;
29958;SDS011;16815;51.100;6.516;2023-03-01T02:59:27;10.47;;;9.37;;
29958;SDS011;16815;51.100;6.516;2023-03-01T03:01:54;10.63;;;9.10;;
29958;SDS011;16815;51.100;6.516;2023-03-01T03:04:20;12.20;;;9.50;;
29958;SDS011;16815;51.100;6.516;2023-03-01T03:06:47;11.13;;;9.63;;
29958;SDS011;16815;51.100;6.516;2023-03-01T03:09:13;11.37;;;9.33;;
29958;SDS011;16815;51.100;6.516;2023-03-01T03:11:39;11.63;;;9.70;;
29958;SDS011;16815;51.100;6.516;2023-03-01T03:14:06;11.17;;;9.03;;
29958;SDS011;16815;51.100;6.516;2023-03-01T03:16:41;10.90;;;8.53;;
29958;SDS011;16815;51.100;6.516;2023-03-01T03:19:17;9.90;;;8.73;;
29958;SDS011;16815;51.100;6.516;2023-03-01T03:21:43;11.07;;;8.50;;
29958;SDS011;16815;51.100;6.516;2023-03-01T03:24:09;10.00;;;8.70;;
29958;SDS011;16815;51.100;6.516;2023-03-01T03:26:35;10.43;;;9.10;;
29958;SDS011;16815;51.100;6.516;2023-03-01T03:29:01;10.50;;;9.17;;
29958;SDS011;16815;51.100;6.516;2023-03-01T03:31:27;12.00;;;9.30;;
29958;SDS011;16815;51.100;6.516;2023-03-01T03:33:53;11.50;;;9.27;;
29958;SDS011;16815;51.100;6.516;2023-03-01T03:36:20;11.40;;;9.73;;
29958;SDS011;16815;51.100;6.516;2023-03-01T03:38:46;10.53;;;9.30;;
29958;SDS011;16815;51.100;6.516;2023-03-01T03:41:13;14.30;;;9.73;;
29958;SDS011;16815;51.100;6.516;2023-03-01T03:43:39;10.33;;;9.23;;
29958;SDS011;16815;51.100;6.516;2023-03-01T03:46:07;13.53;;;10.50;;
29958;SDS011;16815;51.100;6.516;2023-03-01T03:48:36;14.07;;;10.27;;
29958;SDS011;16815;51.100;6.516;2023-03-01T03:51:02;12.80;;;10.17;;
29958;SDS011;16815;51.100;6.516;2023-03-01T03:53:31;14.17;;;10.90;;
29958;SDS011;16815;51.100;6.516;2023-03-01T03:55:57;12.67;;;10.13;;
29958;SDS011;16815;51.100;6.516;2023-03-01T03:58:23;12.87;;;9.83;;
29958;SDS011;16815;51.100;6.516;2023-03-01T04:00:51;14.57;;;11.10;;
29958;SDS011;16815;51.100;6.516;2023-03-01T04:03:17;12.73;;;10.93;;
29958;SDS011;16815;51.100;6.516;2023-03-01T04:05:44;12.73;;;10.97;;
29958;SDS011;16815;51.100;6.516;2023-03-01T04:08:10;14.23;;;11.00;;
29958;SDS011;16815;51.100;6.516;2023-03-01T04:10:38;14.43;;;10.87;;
29958;SDS011;16815;51.100;6.516;2023-03-01T04:13:05;15.43;;;11.63;;
29958;SDS011;16815;51.100;6.516;2023-03-01T04:15:32;13.63;;;10.77;;
29958;SDS011;16815;51.100;6.516;2023-03-01T04:17:58;13.17;;;10.80;;
29958;SDS011;16815;51.100;6.516;2023-03-01T04:20:28;13.10;;;10.83;;
29958;SDS011;16815;51.100;6.516;2023-03-01T04:22:58;14.33;;;11.10;;
29958;SDS011;16815;51.100;6.516;2023-03-01T04:25:24;14.97;;;10.67;;
29958;SDS011;16815;51.100;6.516;2023-03-01T04:27:50;15.53;;;11.47;;
29958;SDS011;16815;51.100;6.516;2023-03-01T04:30:16;12.90;;;10.67;;
29958;SDS011;16815;51.100;6.516;2023-03-01T04:32:42;12.43;;;11.10;;
29958;SDS011;16815;51.100;6.516;2023-03-01T04:35:08;12.73;;;9.83;;
29958;SDS011;16815;51.100;6.516;2023-03-01T04:37:34;16.47;;;10.57;;
29958;SDS011;16815;51.100;6.516;2023-03-01T04:40:01;13.37;;;11.33;;
29958;SDS011;16815;51.100;6.516;2023-03-01T04:42:37;13.93;;;10.50;;
29958;SDS011;16815;51.100;6.516;2023-03-01T04:45:03;14.90;;;10.63;;
29958;SDS011;16815;51.100;6.516;2023-03-01T04:47:37;11.90;;;9.80;;
29958;SDS011;16815;51.100;6.516;2023-03-01T04:50:03;13.07;;;10.33;;
29958;SDS011;16815;51.100;6.516;2023-03-01T04:52:29;13.57;;;10.50;;
29958;SDS011;16815;51.100;6.516;2023-03-01T04:54:56;15.10;;;10.13;;
29958;SDS011;16815;51.100;6.516;2023-03-01T04:57:22;12.13;;;10.53;;
29958;SDS011;16815;51.100;6.516;2023-03-01T04:59:48;13.83;;;10.30;;
29958;SDS011;16815;51.100;6.516;2023-03-01T05:02:14;13.23;;;10.77;;
29958;SDS011;16815;51.100;6.516;2023-03-01T05:04:40;14.50;;;11.33;;
29958;SDS011;16815;51.100;6.516;2023-03-01T05:07:06;14.37;;;11.73;;
29958;SDS011;16815;51.100;6.516;2023-03-01T05:09:32;16.13;;;11.37;;
29958;SDS011;16815;51.100;6.516;2023-03-01T05:11:58;14.50;;;11.30;;
29958;SDS011;16815;51.100;6.516;2023-03-01T05:14:24;13.23;;;10.10;;
29958;SDS011;16815;51.100;6.516;2023-03-01T05:16:49;15.83;;;10.77;;
29958;SDS011;16815;51.100;6.516;2023-03-01T05:19:16;14.47;;;11.57;;
29958;SDS011;16815;51.100;6.516;2023-03-01T05:21:47;15.17;;;11.10;;
29958;SDS011;16815;51.100;6.516;2023-03-01T05:24:29;15.20;;;10.50;;
29958;SDS011;16815;51.100;6.516;2023-03-01T05:26:55;15.23;;;11.10;;
29958;SDS011;16815;51.100;6.516;2023-03-01T05:29:21;13.37;;;10.50;;
29958;SDS011;16815;51.100;6.516;2023-03-01T05:31:56;13.10;;;10.83;;
29958;SDS011;16815;51.100;6.516;2023-03-01T05:34:26;13.43;;;11.10;;
29958;SDS011;16815;51.100;6.516;2023-03-01T05:36:52;11.43;;;10.03;;
29958;SDS011;16815;51.100;6.516;2023-03-01T05:39:22;13.73;;;10.73;;
29958;SDS011;16815;51.100;6.516;2023-03-01T05:41:51;13.67;;;10.53;;
29958;SDS011;16815;51.100;6.516;2023-03-01T05:44:18;15.40;;;12.13;;
29958;SDS011;16815;51.100;6.516;2023-03-01T05:46:44;14.93;;;11.00;;
29958;SDS011;16815;51.100;6.516;2023-03-01T05:49:10;12.83;;;10.23;;
29958;SDS011;16815;51.100;6.516;2023-03-01T05:51:38;13.00;;;10.70;;
29958;SDS011;16815;51.100;6.516;2023-03-01T05:54:04;12.70;;;10.30;;
29958;SDS011;16815;51.100;6.516;2023-03-01T05:56:32;13.90;;;11.90;;
29958;SDS011;16815;51.100;6.516;2023-03-01T05:58:58;12.37;;;10.63;;
29958;SDS011;16815;51.100;6.516;2023-03-01T06:01:23;13.73;;;12.03;;
29958;SDS011;16815;51.100;6.516;2023-03-01T06:03:49;12.00;;;9.97;;
29958;SDS011;16815;51.100;6.516;2023-03-01T06:06:15;12.70;;;11.00;;
29958;SDS011;16815;51.100;6.516;2023-03-01T06:08:41;14.47;;;11.13;;
29958;SDS011;16815;51.100;6.516;2023-03-01T06:11:07;13.10;;;10.37;;
29958;SDS011;16815;51.100;6.516;2023-03-01T06:13:33;14.40;;;10.70;;
29958;SDS011;16815;51.100;6.516;2023-03-01T06:15:59;14.90;;;11.53;;
29958;SDS011;16815;51.100;6.516;2023-03-01T06:18:25;12.50;;;10.67;;
29958;SDS011;16815;51.100;6.516;2023-03-01T06:20:54;14.87;;;11.10;;
29958;SDS011;16815;51.100;6.516;2023-03-01T06:23:21;11.97;;;10.43;;
29958;SDS011;16815;51.100;6.516;2023-03-01T06:25:47;14.00;;;11.13;;
29958;SDS011;16815;51.100;6.516;2023-03-01T06:28:13;16.53;;;11.73;;
29958;SDS011;16815;51.100;6.516;2023-03-01T06:30:39;12.87;;;11.50;;
29958;SDS011;16815;51.100;6.516;2023-03-01T06:33:05;11.87;;;10.60;;
29958;SDS011;16815;51.100;6.516;2023-03-01T06:35:31;14.37;;;11.37;;
29958;SDS011;16815;51.100;6.516;2023-03-01T06:37:58;14.40;;;11.83;;
29958;SDS011;16815;51.100;6.516;2023-03-01T06:40:24;13.27;;;10.83;;
29958;SDS011;16815;51.100;6.516;2023-03-01T06:42:50;16.43;;;12.67;;
29958;SDS011;16815;51.100;6.516;2023-03-01T06:45:19;16.07;;;10.90;;
29958;SDS011;16815;51.100;6.516;2023-03-01T06:47:45;12.23;;;10.93;;
29958;SDS011;16815;51.100;6.516;2023-03-01T06:50:12;16.47;;;11.97;;
29958;SDS011;16815;51.100;6.516;2023-03-01T06:52:38;13.40;;;12.00;;
29958;SDS011;16815;51.100;6.516;2023-03-01T06:55:04;11.53;;;9.63;;
29958;SDS011;16815;51.100;6.516;2023-03-01T06:57:30;15.57;;;12.27;;
29958;SDS011;16815;51.100;6.516;2023-03-01T06:59:56;14.77;;;11.83;;
29958;SDS011;16815;51.100;6.516;2023-03-01T07:02:22;14.23;;;11.20;;
29958;SDS011;16815;51.100;6.516;2023-03-01T07:04:48;11.90;;;10.60;;
29958;SDS011;16815;51.100;6.516;2023-03-01T07:07:15;12.47;;;10.47;;
29958;SDS011;16815;51.100;6.516;2023-03-01T07:09:42;16.07;;;11.27;;
29958;SDS011;16815;51.100;6.516;2023-03-01T07:12:08;12.67;;;10.70;;
29958;SDS011;16815;51.100;6.516;2023-03-01T07:14:34;14.13;;;11.07;;
29958;SDS011;16815;51.100;6.516;2023-03-01T07:17:00;13.47;;;10.77;;
29958;SDS011;16815;51.100;6.516;2023-03-01T07:19:26;14.53;;;11.70;;
29958;SDS011;16815;51.100;6.516;2023-03-01T07:21:52;16.13;;;12.13;;
29958;SDS011;16815;51.100;6.516;2023-03-01T07:24:18;13.40;;;11.60;;
29958;SDS011;16815;51.100;6.516;2023-03-01T07:26:47;14.00;;;11.27;;
29958;SDS011;16815;51.100;6.516;2023-03-01T07:29:14;17.27;;;11.97;;
29958;SDS011;16815;51.100;6.516;2023-03-01T07:31:39;16.47;;;12.40;;
29958;SDS011;16815;51.100;6.516;2023-03-01T07:34:05;13.23;;;11.70;;
29958;SDS011;16815;51.100;6.516;2023-03-01T07:36:31;14.80;;;12.20;;
29958;SDS011;16815;51.100;6.516;2023-03-01T07:38:57;13.77;;;11.47;;
29958;SDS011;16815;51.100;6.516;2023-03-01T07:41:24;16.10;;;12.87;;
29958;SDS011;16815;51.100;6.516;2023-03-01T07:43:49;16.30;;;12.10;;
29958;SDS011;16815;51.100;6.516;2023-03-01T07:46:15;20.70;;;12.50;;
29958;SDS011;16815;51.100;6.516;2023-03-01T07:48:43;18.33;;;12.53;;
29958;SDS011;16815;51.100;6.516;2023-03-01T07:51:09;17.77;;;13.07;;
29958;SDS011;16815;51.100;6.516;2023-03-01T07:53:35;13.10;;;11.70;;
29958;SDS011;16815;51.100;6.516;2023-03-01T07:56:04;15.67;;;12.57;;
29958;SDS011;16815;51.100;6.516;2023-03-01T07:58:31;13.73;;;12.17;;
29958;SDS011;16815;51.100;6.516;2023-03-01T08:01:00;17.47;;;12.67;;
29958;SDS011;16815;51.100;6.516;2023-03-01T08:03:26;19.57;;;12.80;;
29958;SDS011;16815;51.100;6.516;2023-03-01T08:05:52;14.07;;;12.07;;
29958;SDS011;16815;51.100;6.516;2023-03-01T08:08:18;14.90;;;12.27;;
29958;SDS011;16815;51.100;6.516;2023-03-01T08:10:44;19.67;;;13.57;;
29958;SDS011;16815;51.100;6.516;2023-03-01T08:13:10;16.67;;;12.80;;
29958;SDS011;16815;51.100;6.516;2023-03-01T08:15:36;17.67;;;12.97;;
29958;SDS011;16815;51.100;6.516;2023-03-01T08:18:02;16.13;;;13.30;;
29958;SDS011;16815;51.100;6.516;2023-03-01T08:20:28;18.30;;;13.30;;
29958;SDS011;16815;51.100;6.516;2023-03-01T08:22:54;18.30;;;13.83;;
29958;SDS011;16815;51.100;6.516;2023-03-01T08:25:20;18.57;;;14.03;;
29958;SDS011;16815;51.100;6.516;2023-03-01T08:27:45;19.57;;;14.33;;
29958;SDS011;16815;51.100;6.516;2023-03-01T08:30:11;16.43;;;13.13;;
29958;SDS011;16815;51.100;6.516;2023-03-01T08:32:38;19.00;;;13.93;;
29958;SDS011;16815;51.100;6.516;2023-03-01T08:35:05;18.80;;;13.33;;
29958;SDS011;16815;51.100;6.516;2023-03-01T08:37:31;19.10;;;13.40;;
29958;SDS011;16815;51.100;6.516;2023-03-01T08:39:58;16.47;;;13.80;;
29958;SDS011;16815;51.100;6.516;2023-03-01T08:42:24;17.17;;;13.57;;
29958;SDS011;16815;51.100;6.516;2023-03-01T08:44:50;21.43;;;14.23;;
29958;SDS011;16815;51.100;6.516;2023-03-01T08:47:16;18.47;;;14.70;;
29958;SDS011;16815;51.100;6.516;2023-03-01T08:49:42;15.80;;;12.60;;
29958;SDS011;16815;51.100;6.516;2023-03-01T08:52:08;15.87;;;12.50;;
29958;SDS011;16815;51.100;6.516;2023-03-01T08:54:34;16.67;;;13.60;;
29958;SDS011;16815;51.100;6.516;2023-03-01T08:57:05;16.23;;;13.63;;
29958;SDS011;16815;51.100;6.516;2023-03-01T08:59:31;15.97;;;13.20;;
29958;SDS011;16815;51.100;6.516;2023-03-01T09:02:02;17.57;;;13.80;;
29958;SDS011;16815;51.100;6.516;2023-03-01T09:04:28;16.80;;;14.00;;
29958;SDS011;16815;51.100;6.516;2023-03-01T09:06:53;17.73;;;13.47;;
29958;SDS011;16815;51.100;6.516;2023-03-01T09:09:19;16.87;;;13.53;;
29958;SDS011;16815;51.100;6.516;2023-03-01T09:11:46;16.60;;;13.87;;
29958;SDS011;16815;51.100;6.516;2023-03-01T09:14:12;19.57;;;14.33;;
29958;SDS011;16815;51.100;6.516;2023-03-01T09:16:38;19.93;;;13.73;;
29958;SDS011;16815;51.100;6.516;2023-03-01T09:19:04;16.10;;;13.77;;
29958;SDS011;16815;51.100;6.516;2023-03-01T09:21:30;18.37;;;14.37;;
29958;SDS011;16815;51.100;6.516;2023-03-01T09:23:57;17.70;;;14.50;;
29958;SDS011;16815;51.100;6.516;2023-03-01T09:26:23;20.17;;;15.47;;
29958;SDS011;16815;51.100;6.516;2023-03-01T09:28:50;18.53;;;14.47;;
29958;SDS011;16815;51.100;6.516;2023-03-01T09:31:17;18.57;;;14.47;;
29958;SDS011;16815;51.100;6.516;2023-03-01T09:33:45;17.90;;;14.53;;
29958;SDS011;16815;51.100;6.516;2023-03-01T09:36:13;17.77;;;14.30;;
29958;SDS011;16815;51.100;6.516;2023-03-01T09:38:39;20.07;;;15.37;;
29958;SDS011;16815;51.100;6.516;2023-03-01T09:43:42;17.13;;;14.03;;
29958;SDS011;16815;51.100;6.516;2023-03-01T09:46:10;17.07;;;14.23;;
29958;SDS011;16815;51.100;6.516;2023-03-01T09:48:43;17.43;;;14.00;;
29958;SDS011;16815;51.100;6.516;2023-03-01T09:51:12;18.60;;;14.20;;
29958;SDS011;16815;51.100;6.516;2023-03-01T09:53:42;18.90;;;15.73;;
29958;SDS011;16815;51.100;6.516;2023-03-01T09:56:22;21.77;;;14.30;;
29958;SDS011;16815;51.100;6.516;2023-03-01T09:58:54;16.53;;;13.50;;
29958;SDS011;16815;51.100;6.516;2023-03-01T10:01:27;17.30;;;12.37;;
29958;SDS011;16815;51.100;6.516;2023-03-01T10:06:44;15.47;;;12.50;;
29958;SDS011;16815;51.100;6.516;2023-03-01T10:09:10;14.97;;;12.13;;
29958;SDS011;16815;51.100;6.516;2023-03-01T10:11:39;14.10;;;11.70;;
29958;SDS011;16815;51.100;6.516;2023-03-01T10:16:55;14.53;;;12.50;;
29958;SDS011;16815;51.100;6.516;2023-03-01T10:21:49;14.43;;;11.90;;
29958;SDS011;16815;51.100;6.516;2023-03-01T10:24:17;13.97;;;11.97;;
29958;SDS011;16815;51.100;6.516;2023-03-01T10:26:56;13.77;;;11.47;;
29958;SDS011;16815;51.100;6.516;2023-03-01T10:29:25;12.83;;;11.30;;
29958;SDS011;16815;51.100;6.516;2023-03-01T10:31:52;12.07;;;10.77;;
29958;SDS011;16815;51.100;6.516;2023-03-01T10:34:20;13.07;;;10.90;;
29958;SDS011;16815;51.100;6.516;2023-03-01T10:36:48;13.30;;;10.63;;
29958;SDS011;16815;51.100;6.516;2023-03-01T10:39:20;14.70;;;11.07;;
29958;SDS011;16815;51.100;6.516;2023-03-01T10:42:09;12.77;;;11.30;;
29958;SDS011;16815;51.100;6.516;2023-03-01T10:44:48;14.93;;;10.77;;
29958;SDS011;16815;51.100;6.516;2023-03-01T10:47:15;16.23;;;11.33;;
29958;SDS011;16815;51.100;6.516;2023-03-01T10:49:56;12.33;;;10.33;;
29958;SDS011;16815;51.100;6.516;2023-03-01T10:52:24;11.90;;;10.70;;
29958;SDS011;16815;51.100;6.516;2023-03-01T10:55:01;13.37;;;10.73;;
29958;SDS011;16815;51.100;6.516;2023-03-01T10:57:28;13.87;;;10.40;;
29958;SDS011;16815;51.100;6.516;2023-03-01T11:00:10;15.67;;;11.43;;
29958;SDS011;16815;51.100;6.516;2023-03-01T11:02:41;12.97;;;10.87;;
29958;SDS011;16815;51.100;6.516;2023-03-01T11:10:17;14.20;;;10.40;;
29958;SDS011;16815;51.100;6.516;2023-03-01T11:12:43;12.30;;;10.43;;
29958;SDS011;16815;51.100;6.516;2023-03-01T11:15:19;15.90;;;10.77;;
29958;SDS011;16815;51.100;6.516;2023-03-01T11:17:46;11.27;;;9.00;;
29958;SDS011;16815;51.100;6.516;2023-03-01T11:22:38;12.63;;;9.43;;
29958;SDS011;16815;51.100;6.516;2023-03-01T11:25:07;14.57;;;10.97;;
29958;SDS011;16815;51.100;6.516;2023-03-01T11:27:43;13.23;;;10.53;;
29958;SDS011;16815;51.100;6.516;2023-03-01T11:30:29;12.83;;;10.17;;
29958;SDS011;16815;51.100;6.516;2023-03-01T11:33:17;15.87;;;10.60;;
29958;SDS011;16815;51.100;6.516;2023-03-01T11:35:57;11.80;;;10.53;;
29958;SDS011;16815;51.100;6.516;2023-03-01T11:38:24;12.90;;;10.23;;
29958;SDS011;16815;51.100;6.516;2023-03-01T11:41:00;13.43;;;10.20;;
29958;SDS011;16815;51.100;6.516;2023-03-01T11:48:42;13.47;;;10.30;;
29958;SDS011;16815;51.100;6.516;2023-03-01T11:51:53;10.93;;;9.73;;
29958;SDS011;16815;51.100;6.516;2023-03-01T11:54:02;10.93;;;9.43;;
29958;SDS011;16815;51.100;6.516;2023-03-01T11:59:36;15.30;;;10.23;;
29958;SDS011;16815;51.100;6.516;2023-03-01T12:04:34;12.20;;;10.23;;
29958;SDS011;16815;51.100;6.516;2023-03-01T12:07:40;13.83;;;10.80;;
29958;SDS011;16815;51.100;6.516;2023-03-01T12:25:24;11.50;;;9.30;;
29958;SDS011;16815;51.100;6.516;2023-03-01T12:28:14;11.67;;;10.33;;
29958;SDS011;16815;51.100;6.516;2023-03-01T12:41:09;13.67;;;11.13;;
29958;SDS011;16815;51.100;6.516;2023-03-01T12:43:49;13.10;;;11.07;;
29958;SDS011;16815;51.100;6.516;2023-03-01T12:46:21;14.27;;;11.30;;
29958;SDS011;16815;51.100;6.516;2023-03-01T12:49:01;14.97;;;11.03;;
29958;SDS011;16815;51.100;6.516;2023-03-01T12:51:30;13.67;;;11.00;;
29958;SDS011;16815;51.100;6.516;2023-03-01T12:53:57;13.27;;;10.50;;
29958;SDS011;16815;51.100;6.516;2023-03-01T12:56:25;13.47;;;9.87;;
29958;SDS011;16815;51.100;6.516;2023-03-01T12:59:09;11.97;;;9.20;;
29958;SDS011;16815;51.100;6.516;2023-03-01T13:01:45;12.70;;;9.20;;
29958;SDS011;16815;51.100;6.516;2023-03-01T13:06:43;10.00;;;9.00;;
29958;SDS011;16815;51.100;6.516;2023-03-01T13:09:14;10.87;;;9.13;;
29958;SDS011;16815;51.100;6.516;2023-03-01T13:11:42;11.70;;;8.53;;
29958;SDS011;16815;51.100;6.516;2023-03-01T13:16:47;11.47;;;8.80;;
29958;SDS011;16815;51.100;6.516;2023-03-01T13:19:18;9.20;;;8.20;;
29958;SDS011;16815;51.100;6.516;2023-03-01T13:21:48;11.70;;;8.87;;
29958;SDS011;16815;51.100;6.516;2023-03-01T13:29:47;10.83;;;7.57;;
29958;SDS011;16815;51.100;6.516;2023-03-01T13:34:46;9.87;;;7.90;;
29958;SDS011;16815;51.100;6.516;2023-03-01T13:37:28;9.70;;;8.20;;
29958;SDS011;16815;51.100;6.516;2023-03-01T13:39:59;9.73;;;8.13;;
29958;SDS011;16815;51.100;6.516;2023-03-01T13:42:39;10.87;;;7.67;;
29958;SDS011;16815;51.100;6.516;2023-03-01T13:45:13;11.90;;;7.73;;
29958;SDS011;16815;51.100;6.516;2023-03-01T13:47:41;8.53;;;7.03;;
29958;SDS011;16815;51.100;6.516;2023-03-01T13:50:15;8.80;;;7.33;;
29958;SDS011;16815;51.100;6.516;2023-03-01T13:52:48;8.77;;;6.73;;
29958;SDS011;16815;51.100;6.516;2023-03-01T13:57:41;10.27;;;7.13;;
29958;SDS011;16815;51.100;6.516;2023-03-01T14:00:28;8.70;;;7.27;;
29958;SDS011;16815;51.100;6.516;2023-03-01T14:03:01;8.03;;;6.80;;
29958;SDS011;16815;51.100;6.516;2023-03-01T14:05:28;8.73;;;7.40;;
29958;SDS011;16815;51.100;6.516;2023-03-01T14:07:54;7.23;;;6.40;;
29958;SDS011;16815;51.100;6.516;2023-03-01T14:10:25;9.70;;;7.13;;
29958;SDS011;16815;51.100;6.516;2023-03-01T14:15:48;7.60;;;6.57;;
29958;SDS011;16815;51.100;6.516;2023-03-01T14:18:29;9.70;;;7.27;;
29958;SDS011;16815;51.100;6.516;2023-03-01T14:20:58;8.87;;;6.77;;
29958;SDS011;16815;51.100;6.516;2023-03-01T14:23:24;9.80;;;6.90;;
29958;SDS011;16815;51.100;6.516;2023-03-01T14:25:53;8.90;;;6.60;;
29958;SDS011;16815;51.100;6.516;2023-03-01T14:28:20;6.70;;;6.10;;
29958;SDS011;16815;51.100;6.516;2023-03-01T14:30:48;8.83;;;6.23;;
29958;SDS011;16815;51.100;6.516;2023-03-01T14:33:29;7.53;;;6.37;;
29958;SDS011;16815;51.100;6.516;2023-03-01T14:35:59;7.20;;;6.50;;
29958;SDS011;16815;51.100;6.516;2023-03-01T14:38:32;9.70;;;7.10;;
29958;SDS011;16815;51.100;6.516;2023-03-01T14:41:00;7.07;;;6.37;;
29958;SDS011;16815;51.100;6.516;2023-03-01T14:43:27;11.90;;;7.13;;
29958;SDS011;16815;51.100;6.516;2023-03-01T14:45:54;9.47;;;7.20;;
29958;SDS011;16815;51.100;6.516;2023-03-01T14:48:20;7.43;;;6.57;;
29958;SDS011;16815;51.100;6.516;2023-03-01T14:50:47;9.50;;;7.37;;
29958;SDS011;16815;51.100;6.516;2023-03-01T14:53:16;9.50;;;7.53;;
29958;SDS011;16815;51.100;6.516;2023-03-01T14:55:44;8.17;;;6.73;;
29958;SDS011;16815;51.100;6.516;2023-03-01T14:58:12;8.97;;;7.50;;
29958;SDS011;16815;51.100;6.516;2023-03-01T15:00:38;7.83;;;6.63;;
29958;SDS011;16815;51.100;6.516;2023-03-01T15:03:08;9.63;;;7.30;;
29958;SDS011;16815;51.100;6.516;2023-03-01T15:05:38;10.53;;;7.60;;
29958;SDS011;16815;51.100;6.516;2023-03-01T15:08:05;8.90;;;7.20;;
29958;SDS011;16815;51.100;6.516;2023-03-01T15:10:32;9.73;;;7.60;;
29958;SDS011;16815;51.100;6.516;2023-03-01T15:13:20;8.53;;;7.13;;
29958;SDS011;16815;51.100;6.516;2023-03-01T15:15:47;11.63;;;8.13;;
29958;SDS011;16815;51.100;6.516;2023-03-01T15:18:16;9.73;;;7.33;;
29958;SDS011;16815;51.100;6.516;2023-03-01T15:20:43;8.53;;;6.97;;
29958;SDS011;16815;51.100;6.516;2023-03-01T15:23:28;8.97;;;7.10;;
29958;SDS011;16815;51.100;6.516;2023-03-01T15:25:55;8.53;;;7.00;;
29958;SDS011;16815;51.100;6.516;2023-03-01T15:28:26;12.77;;;7.70;;
29958;SDS011;16815;51.100;6.516;2023-03-01T15:31:03;10.10;;;7.33;;
29958;SDS011;16815;51.100;6.516;2023-03-01T15:33:36;10.50;;;6.80;;
29958;SDS011;16815;51.100;6.516;2023-03-01T15:36:03;12.10;;;7.97;;
29958;SDS011;16815;51.100;6.516;2023-03-01T15:38:31;10.20;;;7.63;;
29958;SDS011;16815;51.100;6.516;2023-03-01T15:40:58;10.60;;;7.80;;
29958;SDS011;16815;51.100;6.516;2023-03-01T15:46:03;8.20;;;6.53;;
29958;SDS011;16815;51.100;6.516;2023-03-01T15:48:29;9.90;;;7.53;;
29958;SDS011;16815;51.100;6.516;2023-03-01T15:50:56;9.37;;;7.50;;
29958;SDS011;16815;51.100;6.516;2023-03-01T15:53:22;9.20;;;7.27;;
29958;SDS011;16815;51.100;6.516;2023-03-01T15:55:48;8.60;;;7.23;;
29958;SDS011;16815;51.100;6.516;2023-03-01T16:00:41;12.77;;;7.33;;
29958;SDS011;16815;51.100;6.516;2023-03-01T16:03:08;8.87;;;6.67;;
29958;SDS011;16815;51.100;6.516;2023-03-01T16:05:36;9.90;;;7.43;;
29958;SDS011;16815;51.100;6.516;2023-03-01T16:08:02;8.77;;;7.33;;